Terminal Aerodrome Forecast
Issued by NWS Wilmington, OH

Current Version | Previous Version | Graphics & Text | Print | Product List | Glossary On
Versions: 1 2 3 4 5 6 7 8 9 10 11 12 13 14 15 16 17 18 19 20 21 22 23 24 25 26 27 28 29 30
432
FTUS41 KILN 221749
TAFILN
TAF
KILN 221749Z 2218/2318 04012KT P6SM OVC008
     FM222200 08008KT P6SM OVC008
     FM230400 09007KT 4SM BR OVC008
     FM231000 13007KT 2SM SHRA BR OVC006
     FM231200 16008KT 2SM SHRA BR OVC006
     FM231500 18009KT 2SM SHRA BR OVC006
     FM231600 22012KT 4SM -SHRA BR OVC008=

USA.gov is the U.S. government's official web portal to all federal, state and local government web resources and services.